createdAt,value
2018-02-19T00:01:48.331Z,2.80
2018-02-19T00:04:18.096Z,2.80
2018-02-19T00:06:48.654Z,2.70
2018-02-19T00:09:18.482Z,2.70
2018-02-19T00:11:48.284Z,2.70
2018-02-19T00:14:17.824Z,2.70
2018-02-19T00:16:47.610Z,2.60
2018-02-19T00:19:17.423Z,2.60
2018-02-19T00:21:47.196Z,2.60
2018-02-19T00:24:16.990Z,2.50
2018-02-19T00:26:46.796Z,2.40
2018-02-19T00:29:16.666Z,2.40
2018-02-19T00:31:46.469Z,2.40
2018-02-19T00:34:17.109Z,2.40
2018-02-19T00:36:46.924Z,2.40
2018-02-19T00:39:16.690Z,2.40
2018-02-19T00:41:47.998Z,2.30
2018-02-19T00:44:17.749Z,2.30
2018-02-19T00:46:47.536Z,2.30
2018-02-19T00:49:17.423Z,2.30
2018-02-19T00:51:47.185Z,2.30
2018-02-19T00:54:16.991Z,2.20
2018-02-19T00:56:46.790Z,2.20
2018-02-19T00:59:16.639Z,2.20
2018-02-19T01:01:46.564Z,2.20
2018-02-19T01:04:16.391Z,2.20
2018-02-19T01:06:46.946Z,2.20
2018-02-19T01:09:16.728Z,2.20
2018-02-19T01:11:47.290Z,2.20
2018-02-19T01:14:17.086Z,2.20
2018-02-19T01:16:46.885Z,2.10
2018-02-19T01:19:17.442Z,2.20
2018-02-19T01:21:47.193Z,2.10
2018-02-19T01:24:16.994Z,2.10
2018-02-19T01:26:46.785Z,2.10
2018-02-19T01:29:16.569Z,2.10
2018-02-19T01:31:47.097Z,2.00
2018-02-19T01:34:17.663Z,2.00
2018-02-19T01:36:47.461Z,2.00
2018-02-19T01:39:17.271Z,1.90
2018-02-19T01:41:47.185Z,1.90
2018-02-19T01:44:16.694Z,1.90
2018-02-19T01:46:46.498Z,1.80
2018-02-19T01:49:17.076Z,1.80
2018-02-19T01:51:46.986Z,1.80
2018-02-19T01:54:16.760Z,1.80
2018-02-19T01:56:46.558Z,1.80
2018-02-19T01:59:17.116Z,1.80
2018-02-19T02:01:46.898Z,1.80
2018-02-19T02:04:17.440Z,1.80
2018-02-19T02:06:50.170Z,1.80
2018-02-19T02:09:20.495Z,1.80
2018-02-19T02:11:52.708Z,1.80
2018-02-19T02:14:22.997Z,1.80
2018-02-19T02:16:52.789Z,1.80
2018-02-19T02:19:22.570Z,1.80
2018-02-19T02:21:52.486Z,1.70
2018-02-19T02:24:22.276Z,1.70
2018-02-19T02:26:52.890Z,1.70
2018-02-19T02:29:22.672Z,1.70
2018-02-19T02:31:52.093Z,1.70
2018-02-19T02:34:21.905Z,1.80
2018-02-19T02:36:51.674Z,1.70
2018-02-19T02:39:21.462Z,1.70
2018-02-19T02:41:52.012Z,1.70
2018-02-19T02:44:21.808Z,1.70
2018-02-19T02:46:52.363Z,1.70
2018-02-19T02:49:22.126Z,1.70
2018-02-19T02:51:52.420Z,1.70
2018-02-19T02:54:22.186Z,1.70
2018-02-19T02:56:52.026Z,1.60
2018-02-19T02:59:21.814Z,1.60
2018-02-19T03:01:52.373Z,1.60
2018-02-19T03:04:22.142Z,1.60
2018-02-19T03:06:51.936Z,1.50
2018-02-19T03:09:21.701Z,1.60
2018-02-19T03:11:51.485Z,1.50
2018-02-19T03:14:21.254Z,1.50
2018-02-19T03:16:51.066Z,1.50
2018-02-19T03:19:20.924Z,1.60
2018-02-19T03:21:50.723Z,1.50
2018-02-19T03:24:20.541Z,1.40
2018-02-19T03:26:50.340Z,1.40
2018-02-19T03:29:20.135Z,1.40
2018-02-19T03:31:49.909Z,1.40
2018-02-19T03:34:20.483Z,1.30
2018-02-19T03:36:50.265Z,1.30
2018-02-19T03:39:20.081Z,1.30
2018-02-19T03:41:49.886Z,1.30
2018-02-19T03:44:19.661Z,1.30
2018-02-19T03:46:49.470Z,1.20
2018-02-19T03:49:19.234Z,1.20
2018-02-19T03:51:49.051Z,1.10
2018-02-19T03:54:18.830Z,1.10
2018-02-19T03:56:49.397Z,1.10
2018-02-19T03:59:19.294Z,1.10
2018-02-19T04:01:49.110Z,1.20
2018-02-19T04:04:18.890Z,1.10
2018-02-19T04:06:48.686Z,1.10
2018-02-19T04:09:18.456Z,1.20
2018-02-19T04:11:50.726Z,1.10
2018-02-19T04:14:20.545Z,1.10
2018-02-19T04:16:50.328Z,1.10
2018-02-19T04:19:19.962Z,1.00
2018-02-19T04:21:49.761Z,0.90
2018-02-19T04:24:19.581Z,0.90
2018-02-19T04:26:49.394Z,0.80
2018-02-19T04:29:19.184Z,0.80
2018-02-19T04:31:49.011Z,0.90
2018-02-19T04:34:18.826Z,0.90
2018-02-19T04:36:48.607Z,0.90
2018-02-19T04:39:19.186Z,0.90
2018-02-19T04:41:48.970Z,0.90
2018-02-19T04:44:29.442Z,0.80
2018-02-19T04:46:59.039Z,0.80
2018-02-19T04:49:28.862Z,0.80
2018-02-19T04:51:58.736Z,0.70
2018-02-19T04:54:29.328Z,0.60
2018-02-19T04:56:59.104Z,0.60
2018-02-19T04:59:30.503Z,0.60
2018-02-19T05:02:00.382Z,0.60
2018-02-19T05:04:30.216Z,0.60
2018-02-19T05:06:59.990Z,0.60
2018-02-19T05:09:30.578Z,0.50
2018-02-19T05:12:00.365Z,0.50
2018-02-19T05:14:30.179Z,0.50
2018-02-19T05:16:59.954Z,0.50
2018-02-19T05:19:30.537Z,0.50
2018-02-19T05:22:00.320Z,0.50
2018-02-19T05:24:30.137Z,0.60
2018-02-19T05:26:59.954Z,0.50
2018-02-19T05:29:29.800Z,0.50
2018-02-19T05:31:59.567Z,0.50
2018-02-19T05:34:29.386Z,0.50
2018-02-19T05:36:59.169Z,0.50
2018-02-19T05:39:29.763Z,0.40
2018-02-19T05:41:59.684Z,0.40
2018-02-19T05:44:29.480Z,0.40
2018-02-19T05:46:59.304Z,0.40
2018-02-19T05:49:29.086Z,0.40
2018-02-19T05:51:58.897Z,0.40
2018-02-19T05:54:28.685Z,0.40
2018-02-19T05:56:59.258Z,0.40
2018-02-19T05:59:29.303Z,0.40
2018-02-19T06:02:00.069Z,0.40
2018-02-19T06:04:29.885Z,0.40
2018-02-19T06:07:00.468Z,0.50
2018-02-19T06:09:30.241Z,0.40
2018-02-19T06:11:59.874Z,0.50
2018-02-19T06:14:29.737Z,0.50
2018-02-19T06:17:00.261Z,0.40
2018-02-19T06:19:30.059Z,0.40
2018-02-19T06:21:59.855Z,0.40
2018-02-19T06:24:29.688Z,0.40
2018-02-19T06:26:59.497Z,0.40
2018-02-19T06:29:29.265Z,0.40
2018-02-19T06:31:59.086Z,0.30
2018-02-19T06:34:28.872Z,0.30
2018-02-19T06:36:59.449Z,0.40
2018-02-19T06:39:29.301Z,0.40
2018-02-19T06:41:59.844Z,0.40
2018-02-19T06:44:29.651Z,0.40
2018-02-19T06:47:00.180Z,0.40
2018-02-19T06:49:30.767Z,0.50
2018-02-19T06:52:00.535Z,0.40
2018-02-19T06:54:30.360Z,0.50
2018-02-19T06:57:00.146Z,0.50
2018-02-19T06:59:30.711Z,0.60
2018-02-19T07:02:00.498Z,0.60
2018-02-19T07:04:31.025Z,0.60
2018-02-19T07:07:01.593Z,0.60
2018-02-19T07:09:31.350Z,0.60
2018-02-19T07:12:01.910Z,0.70
2018-02-19T07:14:31.399Z,0.60
2018-02-19T07:17:02.146Z,0.70
2018-02-19T07:19:31.901Z,0.70
2018-02-19T07:22:01.694Z,0.80
2018-02-19T07:24:31.454Z,0.70
2018-02-19T07:27:01.249Z,0.70
2018-02-19T07:29:31.087Z,0.70
2018-02-19T07:32:00.853Z,0.70
2018-02-19T07:34:30.612Z,0.70
2018-02-19T07:37:00.377Z,0.80
2018-02-19T07:39:30.400Z,0.80
2018-02-19T07:42:00.216Z,0.80
2018-02-19T07:44:30.106Z,0.60
2018-02-19T07:46:59.898Z,0.70
2018-02-19T07:49:30.431Z,0.80
2018-02-19T07:52:00.991Z,1.00
2018-02-19T07:54:30.785Z,0.90
2018-02-19T07:57:00.576Z,1.10
2018-02-19T07:59:30.361Z,1.20
2018-02-19T08:02:00.121Z,1.00
2018-02-19T08:04:30.703Z,1.30
2018-02-19T08:07:01.385Z,1.20
2018-02-19T08:09:31.938Z,1.60
2018-02-19T08:12:01.712Z,1.60
2018-02-19T08:14:32.273Z,1.80
2018-02-19T08:17:02.038Z,1.80
2018-02-19T08:19:31.828Z,1.80
2018-02-19T08:22:01.302Z,1.90
2018-02-19T08:24:32.098Z,1.90
2018-02-19T08:27:03.404Z,1.90
2018-02-19T08:29:33.226Z,2.00
2018-02-19T08:32:02.988Z,1.90
2018-02-19T08:34:33.607Z,1.80
2018-02-19T08:37:03.656Z,1.80
2018-02-19T08:39:33.617Z,2.00
2018-02-19T08:42:03.431Z,2.00
2018-02-19T08:44:33.194Z,2.10
2018-02-19T08:47:03.012Z,2.20
2018-02-19T08:49:32.847Z,2.10
2018-02-19T08:52:02.791Z,2.10
2018-02-19T08:54:32.592Z,2.20
2018-02-19T08:57:03.572Z,2.30
2018-02-19T08:59:35.533Z,2.50
2018-02-19T09:02:05.497Z,2.60
2018-02-19T09:04:35.297Z,2.90
2018-02-19T09:07:05.061Z,3.00
2018-02-19T09:09:34.892Z,3.10
2018-02-19T09:12:04.693Z,3.10
2018-02-19T09:14:34.451Z,3.30
2018-02-19T09:17:04.246Z,3.40
2018-02-19T09:19:34.009Z,3.30
2018-02-19T09:22:03.797Z,3.30
2018-02-19T09:24:33.593Z,3.50
2018-02-19T09:27:03.579Z,3.70
2018-02-19T09:29:33.365Z,3.80
2018-02-19T09:32:03.126Z,3.40
2018-02-19T09:34:32.916Z,3.30
2018-02-19T09:37:02.665Z,3.50
2018-02-19T09:39:32.470Z,3.60
2018-02-19T09:42:02.221Z,3.70
2018-02-19T09:44:32.781Z,3.50
2018-02-19T09:47:02.423Z,3.50
2018-02-19T09:49:32.172Z,3.60
2018-02-19T09:52:01.972Z,3.80
2018-02-19T09:54:31.826Z,3.80
2018-02-19T09:57:01.618Z,3.80
2018-02-19T09:59:32.150Z,3.70
2018-02-19T10:02:02.726Z,3.90
2018-02-19T10:04:32.485Z,3.90
2018-02-19T10:07:02.904Z,4.40
2018-02-19T10:09:32.705Z,4.40
2018-02-19T10:12:02.487Z,4.90
2018-02-19T10:14:32.294Z,4.90
2018-02-19T10:17:02.048Z,5.00
2018-02-19T10:19:31.846Z,4.80
2018-02-19T10:22:01.858Z,4.90
2018-02-19T10:24:31.661Z,4.70
2018-02-19T10:27:01.420Z,5.00
2018-02-19T10:29:31.701Z,5.50
2018-02-19T10:32:01.178Z,5.40
2018-02-19T10:34:31.743Z,5.40
2018-02-19T10:37:01.548Z,5.40
2018-02-19T10:39:31.336Z,5.60
2018-02-19T10:42:01.862Z,5.60
2018-02-19T10:44:32.460Z,5.80
2018-02-19T10:47:02.227Z,5.80
2018-02-19T10:49:32.258Z,5.60
2018-02-19T10:52:02.049Z,5.50
2018-02-19T10:54:32.606Z,6.00
2018-02-19T10:57:02.214Z,6.00
2018-02-19T10:59:31.976Z,6.20
2018-02-19T11:02:01.767Z,6.10
2018-02-19T11:04:31.554Z,5.90
2018-02-19T11:07:01.319Z,5.80
2018-02-19T11:09:31.126Z,5.70
2018-02-19T11:12:00.888Z,5.50
2018-02-19T11:14:30.689Z,5.60
2018-02-19T11:17:01.234Z,6.00
2018-02-19T11:19:31.058Z,6.00
2018-02-19T11:22:00.857Z,6.00
2018-02-19T11:24:30.618Z,6.00
2018-02-19T11:27:00.409Z,6.20
2018-02-19T11:29:30.181Z,6.20
2018-02-19T11:32:00.758Z,6.00
2018-02-19T11:34:30.537Z,6.00
2018-02-19T11:37:00.357Z,6.20
2018-02-19T11:39:30.110Z,6.30
2018-02-19T11:41:59.942Z,6.50
2018-02-19T11:44:29.701Z,6.80
2018-02-19T11:46:59.497Z,7.20
2018-02-19T11:49:29.297Z,7.60
2018-02-19T11:51:59.953Z,8.40
2018-02-19T11:54:29.748Z,8.40
2018-02-19T11:57:00.360Z,9.40
2018-02-19T11:59:30.140Z,9.40
2018-02-19T12:01:59.978Z,10.40
2018-02-19T12:04:31.270Z,11.20
2018-02-19T12:07:01.118Z,11.10
2018-02-19T12:09:30.884Z,11.60
2018-02-19T12:12:01.556Z,9.10
2018-02-19T12:14:31.327Z,9.10
2018-02-19T12:17:01.721Z,7.60
2018-02-19T12:19:31.321Z,7.60
2018-02-19T12:22:01.137Z,7.50
2018-02-19T12:24:30.898Z,7.50
2018-02-19T12:27:01.449Z,7.90
2018-02-19T12:29:31.249Z,7.90
2018-02-19T12:32:01.033Z,8.40
2018-02-19T12:34:31.613Z,9.40
2018-02-19T12:37:01.378Z,9.40
2018-02-19T12:39:31.801Z,9.30
2018-02-19T12:42:01.797Z,9.30
2018-02-19T12:44:31.570Z,8.70
2018-02-19T12:47:01.365Z,8.50
2018-02-19T12:49:31.884Z,8.40
2018-02-19T12:52:02.444Z,8.70
2018-02-19T12:54:32.218Z,8.70
2018-02-19T12:57:02.798Z,8.80
2018-02-19T12:59:32.570Z,8.70
2018-02-19T13:02:03.165Z,9.20
2018-02-19T13:04:32.934Z,9.20
2018-02-19T13:07:02.741Z,9.30
2018-02-19T13:09:32.514Z,9.20
2018-02-19T13:12:02.334Z,8.80
2018-02-19T13:14:32.137Z,9.10
2018-02-19T13:17:01.950Z,9.00
2018-02-19T13:19:31.813Z,9.20
2018-02-19T13:22:01.589Z,9.90
2018-02-19T13:24:32.199Z,12.30
2018-02-19T13:27:01.983Z,12.30
2018-02-19T13:29:31.966Z,12.90
2018-02-19T13:32:01.744Z,12.50
2018-02-19T13:34:31.587Z,12.70
2018-02-19T13:37:01.317Z,13.10
2018-02-19T13:39:30.888Z,13.90
2018-02-19T13:42:00.382Z,14.90
2018-02-19T13:44:30.702Z,14.80
2018-02-19T13:47:00.997Z,14.00
2018-02-19T13:49:30.497Z,14.00
2018-02-19T13:52:00.427Z,12.30
2018-02-19T13:54:30.237Z,11.20
2018-02-19T13:57:00.026Z,11.20
2018-02-19T13:59:30.606Z,11.30
2018-02-19T14:02:00.060Z,11.30
2018-02-19T14:04:30.670Z,10.80
2018-02-19T14:07:00.444Z,10.80
2018-02-19T14:09:30.256Z,10.70
2018-02-19T14:12:00.031Z,10.50
2018-02-19T14:14:30.607Z,11.20
2018-02-19T14:17:00.405Z,11.20
2018-02-19T14:19:30.180Z,10.70
2018-02-19T14:22:00.767Z,10.50
2018-02-19T14:24:30.271Z,10.50
2018-02-19T14:27:00.092Z,10.40
2018-02-19T14:29:29.872Z,10.80
2018-02-19T14:31:59.689Z,10.70
2018-02-19T14:34:29.484Z,10.50
2018-02-19T14:37:00.010Z,9.70
2018-02-19T14:39:30.583Z,9.00
2018-02-19T14:42:00.388Z,9.00
2018-02-19T14:44:30.178Z,8.80
2018-02-19T14:46:59.994Z,8.40
2018-02-19T14:49:29.754Z,8.20
2018-02-19T14:51:59.561Z,7.90
2018-02-19T14:54:29.314Z,8.10
2018-02-19T14:56:59.868Z,8.00
2018-02-19T14:59:29.643Z,7.90
2018-02-19T15:01:59.448Z,7.60
2018-02-19T15:04:29.286Z,7.10
2018-02-19T15:06:59.804Z,6.70
2018-02-19T15:09:30.362Z,6.40
2018-02-19T15:12:00.941Z,6.50
2018-02-19T15:14:30.704Z,6.40
2018-02-19T15:17:00.528Z,6.50
2018-02-19T15:19:30.290Z,6.50
2018-02-19T15:22:00.139Z,6.40
2018-02-19T15:24:30.690Z,6.30
2018-02-19T15:27:00.500Z,6.30
2018-02-19T15:29:30.317Z,6.20
2018-02-19T15:32:00.123Z,6.30
2018-02-19T15:34:29.888Z,6.10
2018-02-19T15:36:59.710Z,6.10
2018-02-19T15:39:29.485Z,6.10
2018-02-19T15:41:59.277Z,5.90
2018-02-19T15:44:29.881Z,5.90
2018-02-19T15:46:59.646Z,5.80
2018-02-19T15:49:29.445Z,5.80
2018-02-19T15:51:59.546Z,5.70
2018-02-19T15:54:29.355Z,5.60
2018-02-19T15:57:00.656Z,5.40
2018-02-19T15:59:30.428Z,5.40
2018-02-19T16:02:00.991Z,5.40
2018-02-19T16:04:30.821Z,5.30
2018-02-19T16:07:00.627Z,5.40
2018-02-19T16:09:30.402Z,5.40
2018-02-19T16:12:00.991Z,5.30
2018-02-19T16:14:30.902Z,5.30
2018-02-19T16:17:00.910Z,5.40
2018-02-19T16:19:30.815Z,5.30
2018-02-19T16:22:00.602Z,5.40
2018-02-19T16:24:32.200Z,5.30
2018-02-19T16:27:02.004Z,5.30
2018-02-19T16:29:31.838Z,5.20
2018-02-19T16:32:01.646Z,5.20
2018-02-19T16:34:31.450Z,5.10
2018-02-19T16:37:01.338Z,5.10
2018-02-19T16:39:31.334Z,5.10
2018-02-19T16:42:01.140Z,5.00
2018-02-19T16:44:31.001Z,4.90
2018-02-19T16:47:01.128Z,4.80
2018-02-19T16:49:36.539Z,4.70
2018-02-19T16:52:07.119Z,4.70
2018-02-19T16:54:36.945Z,4.60
2018-02-19T16:57:07.008Z,4.70
2018-02-19T16:59:37.609Z,4.70
2018-02-19T17:02:07.384Z,4.70
2018-02-19T17:04:37.212Z,4.70
2018-02-19T17:07:07.016Z,4.60
2018-02-19T17:09:37.028Z,4.60
2018-02-19T17:12:06.816Z,4.70
2018-02-19T17:14:37.365Z,4.50
2018-02-19T17:17:07.161Z,4.50
2018-02-19T17:19:36.997Z,4.50
2018-02-19T17:22:06.569Z,4.30
2018-02-19T17:24:36.382Z,4.30
2018-02-19T17:27:07.672Z,4.20
2018-02-19T17:29:37.471Z,4.20
2018-02-19T17:32:08.006Z,4.30
2018-02-19T17:34:37.657Z,4.30
2018-02-19T17:37:07.428Z,4.30
2018-02-19T17:39:38.045Z,4.30
2018-02-19T17:42:08.692Z,4.40
2018-02-19T17:44:38.532Z,4.30
2018-02-19T17:47:08.319Z,4.30
2018-02-19T17:49:38.880Z,4.30
2018-02-19T17:52:08.700Z,4.30
2018-02-19T17:54:38.479Z,4.30
2018-02-19T17:57:09.086Z,4.30
2018-02-19T17:59:38.881Z,4.30
2018-02-19T18:02:08.666Z,4.40
2018-02-19T18:04:39.369Z,4.30
2018-02-19T18:07:09.937Z,4.40
2018-02-19T18:09:39.722Z,4.40
2018-02-19T18:12:10.301Z,4.40
2018-02-19T18:14:40.066Z,4.30
2018-02-19T18:17:10.677Z,4.30
2018-02-19T18:19:40.486Z,4.30
2018-02-19T18:22:10.317Z,4.20
2018-02-19T18:24:40.889Z,4.20
2018-02-19T18:27:10.664Z,4.10
2018-02-19T18:29:41.245Z,4.00
2018-02-19T18:32:11.036Z,4.00
2018-02-19T18:34:40.886Z,4.00
2018-02-19T18:37:10.675Z,4.00
2018-02-19T18:39:40.480Z,4.00
2018-02-19T18:42:10.287Z,3.90
2018-02-19T18:44:40.364Z,3.90
2018-02-19T18:47:10.195Z,3.80
2018-02-19T18:49:40.742Z,3.80
2018-02-19T18:52:11.325Z,3.80
2018-02-19T18:54:41.112Z,3.80
2018-02-19T18:57:10.913Z,3.80
2018-02-19T18:59:40.706Z,3.80
2018-02-19T19:02:11.243Z,3.70
2018-02-19T19:04:41.860Z,3.60
2018-02-19T19:10:14.316Z,3.50
2018-02-19T19:12:43.880Z,3.50
2018-02-19T19:15:14.429Z,3.50
2018-02-19T19:17:44.348Z,3.50
2018-02-19T19:20:14.148Z,3.50
2018-02-19T19:22:43.944Z,3.50
2018-02-19T19:25:14.525Z,3.50
2018-02-19T19:27:44.331Z,3.40
2018-02-19T19:30:14.140Z,3.50
2018-02-19T19:32:43.908Z,3.50
2018-02-19T19:35:13.711Z,3.50
2018-02-19T19:37:43.481Z,3.50
2018-02-19T19:40:13.285Z,3.50
2018-02-19T19:42:43.113Z,3.50
2018-02-19T19:45:12.893Z,3.50
2018-02-19T19:47:43.469Z,3.40
2018-02-19T19:50:13.303Z,3.40
2018-02-19T19:52:43.070Z,3.40
2018-02-19T19:55:12.890Z,3.30
2018-02-19T19:57:42.679Z,3.20
2018-02-19T20:00:12.700Z,3.30
2018-02-19T20:02:43.262Z,3.20
2018-02-19T20:05:13.072Z,3.20
2018-02-19T20:07:42.838Z,3.20
2018-02-19T20:10:12.641Z,3.10
2018-02-19T20:12:42.437Z,3.10
2018-02-19T20:15:12.226Z,3.00
2018-02-19T20:17:42.042Z,3.10
2018-02-19T20:20:11.891Z,3.10
2018-02-19T20:22:41.742Z,3.10
2018-02-19T20:25:12.287Z,3.00
2018-02-19T20:27:42.940Z,3.00
2018-02-19T20:30:12.716Z,3.00
2018-02-19T20:32:42.571Z,3.00
2018-02-19T20:35:12.217Z,3.00
2018-02-19T20:37:41.994Z,2.90
2018-02-19T20:40:11.807Z,2.80
2018-02-19T20:42:41.620Z,2.80
2018-02-19T20:45:11.433Z,2.80
2018-02-19T20:47:41.207Z,2.80
2018-02-19T20:50:11.118Z,2.70
2018-02-19T20:52:40.924Z,2.60
2018-02-19T20:55:10.736Z,2.70
2018-02-19T20:57:40.785Z,2.70
2018-02-19T21:00:11.370Z,2.70
2018-02-19T21:02:41.954Z,2.70
2018-02-19T21:05:12.561Z,2.80
2018-02-19T21:07:42.357Z,2.70
2018-02-19T21:10:12.152Z,2.80
2018-02-19T21:12:42.914Z,2.80
2018-02-19T21:15:12.374Z,2.80
2018-02-19T21:17:42.226Z,2.80
2018-02-19T21:20:12.221Z,2.80
2018-02-19T21:22:42.022Z,2.80
2018-02-19T21:25:11.825Z,2.70
2018-02-19T21:27:41.598Z,2.60
2018-02-19T21:30:11.405Z,2.70
2018-02-19T21:32:41.182Z,2.70
2018-02-19T21:35:11.014Z,2.60
2018-02-19T21:37:40.869Z,2.60
2018-02-19T21:40:11.438Z,2.50
2018-02-19T21:42:41.206Z,2.50
2018-02-19T21:45:11.778Z,2.40
2018-02-19T21:47:41.547Z,2.40
2018-02-19T21:50:12.135Z,2.30
2018-02-19T21:52:41.927Z,2.30
2018-02-19T21:55:11.745Z,2.20
2018-02-19T21:57:41.640Z,2.20
2018-02-19T22:00:11.461Z,2.10
2018-02-19T22:02:41.914Z,2.20
2018-02-19T22:05:11.700Z,2.10
2018-02-19T22:07:41.490Z,2.00
2018-02-19T22:10:12.089Z,1.90
2018-02-19T22:12:41.898Z,1.90
2018-02-19T22:15:11.722Z,1.90
2018-02-19T22:17:41.550Z,1.90
2018-02-19T22:20:12.727Z,1.80
2018-02-19T22:22:42.526Z,1.80
2018-02-19T22:25:12.331Z,1.90
2018-02-19T22:27:42.882Z,1.80
2018-02-19T22:30:12.685Z,1.90
2018-02-19T22:32:42.477Z,1.80
2018-02-19T22:35:13.071Z,1.70
2018-02-19T22:37:42.891Z,1.70
2018-02-19T22:40:13.703Z,1.70
2018-02-19T22:42:43.489Z,1.70
2018-02-19T22:45:13.289Z,1.70
2018-02-19T22:47:43.859Z,1.70
2018-02-19T22:50:13.987Z,1.70
2018-02-19T22:52:44.049Z,1.70
2018-02-19T22:55:14.621Z,1.60
2018-02-19T22:57:44.582Z,1.60
2018-02-19T23:00:15.351Z,1.40
2018-02-19T23:02:44.574Z,1.40
2018-02-19T23:05:14.339Z,1.50
2018-02-19T23:07:44.152Z,1.50
2018-02-19T23:10:13.966Z,1.50
2018-02-19T23:12:43.771Z,1.50
2018-02-19T23:15:13.552Z,1.50
2018-02-19T23:17:43.362Z,1.50
2018-02-19T23:20:13.141Z,1.50
2018-02-19T23:22:42.955Z,1.40
2018-02-19T23:25:12.718Z,1.40
2018-02-19T23:27:42.520Z,1.40
2018-02-19T23:30:12.329Z,1.40
2018-02-19T23:32:42.105Z,1.40
2018-02-19T23:35:11.905Z,1.40
2018-02-19T23:37:42.474Z,1.30
2018-02-19T23:40:12.257Z,1.30
2018-02-19T23:42:42.059Z,1.30
2018-02-19T23:45:12.607Z,1.20
2018-02-19T23:47:42.405Z,1.20
2018-02-19T23:50:12.942Z,1.20
2018-02-19T23:52:42.865Z,1.20
2018-02-19T23:55:12.629Z,1.10
2018-02-19T23:57:42.428Z,1.10
